createdAt,value
2023-01-12T00:02:18.181Z,4.11
2023-01-12T00:04:46.210Z,4.10
2023-01-12T00:07:16.040Z,4.11
2023-01-12T00:09:44.018Z,4.10
2023-01-12T00:12:12.507Z,4.11
2023-01-12T00:14:40.605Z,4.11
2023-01-12T00:17:09.214Z,4.11
2023-01-12T00:19:38.946Z,4.11
2023-01-12T00:22:13.176Z,4.11
2023-01-12T00:24:45.721Z,4.12
2023-01-12T00:27:19.656Z,4.13
2023-01-12T00:29:49.450Z,4.14
2023-01-12T00:32:20.208Z,4.15
2023-01-12T00:34:48.422Z,4.15
2023-01-12T00:37:16.264Z,4.16
2023-01-12T00:39:53.061Z,4.17
2023-01-12T00:42:47.076Z,4.19
2023-01-12T00:45:24.427Z,4.21
2023-01-12T00:47:53.780Z,4.23
2023-01-12T00:50:22.173Z,4.25
2023-01-12T00:52:49.970Z,4.27
2023-01-12T00:55:17.794Z,4.30
2023-01-12T00:57:45.900Z,4.32
2023-01-12T01:00:14.507Z,4.35
2023-01-12T01:02:42.480Z,4.37
2023-01-12T01:05:10.376Z,4.39
2023-01-12T01:07:38.378Z,4.41
2023-01-12T01:10:07.188Z,4.44
2023-01-12T01:12:35.312Z,4.47
2023-01-12T01:15:03.728Z,4.49
2023-01-12T01:17:31.727Z,4.52
2023-01-12T01:20:00.192Z,4.53
2023-01-12T01:22:28.266Z,4.55
2023-01-12T01:24:56.120Z,4.57
2023-01-12T01:27:24.017Z,4.58
2023-01-12T01:29:55.411Z,4.60
2023-01-12T01:32:23.321Z,4.61
2023-01-12T01:34:51.178Z,4.64
2023-01-12T01:37:20.084Z,4.65
2023-01-12T01:39:48.300Z,4.66
2023-01-12T01:42:28.692Z,4.68
2023-01-12T01:44:59.938Z,4.70
2023-01-12T01:47:42.796Z,4.71
2023-01-12T01:50:19.956Z,4.72
2023-01-12T01:52:57.813Z,4.72
2023-01-12T01:55:57.167Z,4.73
2023-01-12T01:58:31.780Z,4.74
2023-01-12T02:00:59.749Z,4.74
2023-01-12T02:03:29.403Z,4.75
2023-01-12T02:05:58.233Z,4.76
2023-01-12T02:08:33.872Z,4.77
2023-01-12T02:11:03.228Z,4.78
2023-01-12T02:13:50.558Z,4.79
2023-01-12T02:16:25.605Z,4.80
2023-01-12T02:19:06.118Z,4.82
2023-01-12T02:21:58.474Z,4.84
2023-01-12T02:24:58.596Z,4.86
2023-01-12T02:27:38.424Z,4.88
2023-01-12T02:30:34.174Z,4.91
2023-01-12T02:36:25.441Z,4.95
2023-01-12T02:39:15.426Z,4.98
2023-01-12T02:42:12.106Z,4.99
2023-01-12T02:44:48.891Z,5.01
2023-01-12T02:47:25.741Z,5.03
2023-01-12T02:49:59.568Z,5.05
2023-01-12T02:52:32.132Z,5.07
2023-01-12T02:55:02.043Z,5.08
2023-01-12T02:57:33.312Z,5.09
2023-01-12T03:00:03.533Z,5.11
2023-01-12T03:02:32.960Z,5.13
2023-01-12T03:05:00.852Z,5.14
2023-01-12T03:07:47.049Z,5.17
2023-01-12T03:10:20.821Z,5.19
2023-01-12T03:12:51.424Z,5.21
2023-01-12T03:15:19.812Z,5.23
2023-01-12T03:17:58.660Z,5.25
2023-01-12T03:20:32.939Z,5.27
2023-01-12T04:34:39.519Z,5.92
2023-01-12T04:37:07.417Z,5.94
2023-01-12T04:39:35.280Z,5.95
2023-01-12T04:42:03.545Z,5.96
2023-01-12T04:44:35.127Z,5.98
2023-01-12T04:47:02.915Z,5.99
2023-01-12T04:49:30.733Z,6.00
2023-01-12T04:51:59.303Z,6.01
2023-01-12T04:54:27.323Z,6.03
2023-01-12T04:56:55.256Z,6.04
2023-01-12T04:59:23.124Z,6.05
2023-01-12T05:01:51.047Z,6.06
2023-01-12T05:04:19.051Z,6.06
2023-01-12T05:06:46.990Z,6.07
2023-01-12T05:09:33.586Z,6.08
2023-01-12T05:12:01.616Z,6.09
2023-01-12T05:14:29.749Z,6.10
2023-01-12T05:16:59.607Z,6.11
2023-01-12T05:19:27.526Z,6.11
2023-01-12T05:21:55.354Z,6.13
2023-01-12T05:24:23.215Z,6.13
2023-01-12T05:26:51.092Z,6.15
2023-01-12T05:29:18.982Z,6.16
2023-01-12T05:31:46.917Z,6.18
2023-01-12T05:34:14.834Z,6.20
2023-01-12T05:36:42.611Z,6.21
2023-01-12T05:39:10.504Z,6.23
2023-01-12T05:41:58.334Z,6.24
2023-01-12T05:44:26.648Z,6.26
2023-01-12T05:46:54.587Z,6.27
2023-01-12T05:49:22.492Z,6.28
2023-01-12T05:51:50.380Z,6.29
2023-01-12T05:54:18.164Z,6.31
2023-01-12T05:56:46.630Z,6.31
2023-01-12T05:59:15.527Z,6.32
2023-01-12T06:01:44.047Z,6.34
2023-01-12T06:04:12.037Z,6.35
2023-01-12T06:06:39.946Z,6.37
2023-01-12T06:09:07.961Z,6.37
2023-01-12T06:11:54.447Z,6.38
2023-01-12T06:14:22.356Z,6.39
2023-01-12T06:16:50.283Z,6.40
2023-01-12T06:19:18.141Z,6.42
2023-01-12T06:21:46.012Z,6.43
2023-01-12T06:24:14.154Z,6.43
2023-01-12T06:26:45.131Z,6.44
2023-01-12T06:29:13.741Z,6.45
2023-01-12T06:31:41.692Z,6.45
2023-01-12T06:34:09.842Z,6.46
2023-01-12T06:36:38.811Z,6.45
2023-01-12T06:39:06.742Z,6.46
2023-01-12T06:41:53.529Z,6.46
2023-01-12T06:44:21.599Z,6.47
2023-01-12T06:46:49.426Z,6.47
2023-01-12T06:49:17.306Z,6.47
2023-01-12T06:51:47.672Z,6.49
2023-01-12T06:54:17.748Z,6.49
2023-01-12T06:56:46.750Z,6.49
2023-01-12T06:59:14.690Z,6.49
2023-01-12T07:01:42.678Z,6.47
2023-01-12T07:04:10.943Z,6.47
2023-01-12T07:06:39.065Z,6.46
2023-01-12T07:09:06.933Z,6.45
2023-01-12T07:11:34.877Z,6.45
2023-01-12T07:14:04.415Z,6.45
2023-01-12T07:16:33.562Z,6.45
2023-01-12T07:19:01.426Z,6.46
2023-01-12T07:21:29.236Z,6.46
2023-01-12T07:23:57.096Z,6.47
2023-01-12T07:26:33.915Z,6.49
2023-01-12T07:29:02.241Z,6.51
2023-01-12T07:31:30.622Z,6.52
2023-01-12T07:33:58.390Z,6.53
2023-01-12T07:36:26.358Z,6.54
2023-01-12T07:38:54.370Z,6.54
2023-01-12T07:41:41.127Z,6.56
2023-01-12T07:44:09.772Z,6.57
2023-01-12T07:46:37.769Z,6.59
2023-01-12T07:49:05.832Z,6.60
2023-01-12T07:51:33.946Z,6.61
2023-01-12T07:54:02.190Z,6.62
2023-01-12T07:56:30.147Z,6.64
2023-01-12T07:58:58.130Z,6.64
2023-01-12T08:01:26.358Z,6.67
2023-01-12T08:03:54.634Z,6.68
2023-01-12T08:06:22.527Z,6.71
2023-01-12T08:08:52.935Z,6.73
2023-01-12T08:11:21.000Z,6.76
2023-01-12T08:13:53.852Z,6.78
2023-01-12T08:16:27.711Z,6.79
2023-01-12T08:19:16.666Z,6.80
2023-01-12T08:21:50.143Z,6.80
2023-01-12T08:24:23.608Z,6.78
2023-01-12T08:26:56.643Z,6.77
2023-01-12T08:29:32.136Z,6.74
2023-01-12T08:32:04.968Z,6.71
2023-01-12T08:34:35.539Z,6.69
2023-01-12T08:37:08.125Z,6.66
2023-01-12T08:39:36.502Z,6.67
2023-01-12T08:42:04.652Z,6.72
2023-01-12T08:44:36.218Z,6.84
2023-01-12T08:47:06.476Z,7.01
2023-01-12T08:49:34.449Z,7.24
2023-01-12T08:52:02.403Z,7.47
2023-01-12T08:54:30.564Z,7.72
2023-01-12T08:56:58.537Z,8.00
2023-01-12T08:59:26.333Z,8.30
2023-01-12T09:01:54.158Z,8.60
2023-01-12T09:04:22.595Z,8.91
2023-01-12T09:06:50.553Z,9.20
2023-01-12T09:09:20.184Z,9.50
2023-01-12T09:11:49.527Z,9.77
2023-01-12T09:14:17.589Z,9.89
2023-01-12T09:16:45.558Z,9.85
2023-01-12T09:19:13.639Z,9.84
2023-01-12T09:21:42.204Z,9.80
2023-01-12T09:24:11.955Z,9.71
2023-01-12T09:26:46.058Z,9.70
2023-01-12T09:29:14.827Z,9.73
2023-01-12T09:31:45.081Z,9.75
2023-01-12T09:34:13.896Z,9.80
2023-01-12T09:36:42.439Z,9.84
2023-01-12T09:39:26.854Z,9.90
2023-01-12T09:42:17.687Z,10.02
2023-01-12T09:45:08.811Z,10.12
2023-01-12T09:48:01.301Z,10.22
2023-01-12T09:50:33.654Z,10.36
2023-01-12T09:53:12.925Z,10.46
2023-01-12T09:55:49.950Z,10.50
2023-01-12T09:58:30.059Z,10.53
2023-01-12T10:01:01.474Z,10.60
2023-01-12T10:03:38.474Z,10.66
2023-01-12T10:06:08.872Z,10.69
2023-01-12T10:08:41.625Z,10.71
2023-01-12T10:11:30.440Z,10.73
2023-01-12T10:14:01.392Z,10.77
2023-01-12T10:16:38.450Z,10.77
2023-01-12T10:19:30.736Z,10.76
2023-01-12T10:22:37.288Z,10.72
2023-01-12T10:28:37.806Z,10.70
2023-01-12T10:31:16.242Z,10.67
2023-01-12T10:34:02.853Z,10.63
2023-01-12T10:36:31.944Z,10.67
2023-01-12T10:39:03.587Z,10.70
2023-01-12T10:41:36.319Z,10.71
2023-01-12T10:44:13.821Z,10.72
2023-01-12T10:46:42.408Z,10.73
2023-01-12T10:49:20.781Z,10.73
2023-01-12T10:51:57.692Z,10.75
2023-01-12T10:54:29.254Z,10.75
2023-01-12T10:57:03.018Z,10.69
2023-01-12T10:59:34.248Z,10.61
2023-01-12T11:04:45.481Z,10.43
2023-01-12T11:07:14.664Z,10.32
2023-01-12T11:09:44.485Z,10.30
2023-01-12T11:12:24.459Z,10.34
2023-01-12T11:15:10.722Z,10.38
2023-01-12T11:17:38.672Z,10.30
2023-01-12T11:20:25.211Z,10.18
2023-01-12T11:22:56.582Z,10.07
2023-01-12T11:25:26.474Z,9.95
2023-01-12T11:28:18.843Z,9.89
2023-01-12T11:30:52.852Z,9.92
2023-01-12T11:33:25.876Z,9.96
2023-01-12T11:35:56.675Z,10.00
2023-01-12T11:38:32.072Z,9.95
2023-01-12T11:40:59.928Z,9.94
2023-01-12T11:43:49.170Z,9.95
2023-01-12T11:46:26.672Z,9.92
2023-01-12T11:49:14.829Z,9.95
2023-01-12T11:51:43.936Z,9.99
2023-01-12T11:54:16.092Z,9.98
2023-01-12T11:57:07.711Z,9.97
2023-01-12T11:59:53.864Z,9.98
2023-01-12T12:02:52.688Z,9.92
2023-01-12T12:05:45.545Z,9.82
2023-01-12T12:08:25.127Z,9.81
2023-01-12T12:10:59.298Z,9.82
2023-01-12T12:13:40.488Z,9.86
2023-01-12T12:16:26.537Z,9.88
2023-01-12T12:19:23.318Z,9.84
2023-01-12T12:22:08.070Z,9.76
2023-01-12T12:25:10.378Z,9.71
2023-01-12T12:27:44.091Z,9.60
2023-01-12T12:30:33.754Z,9.53
2023-01-12T12:33:35.202Z,9.49
2023-01-12T12:36:11.991Z,9.42
2023-01-12T12:38:44.708Z,9.37
2023-01-12T12:41:47.304Z,9.32
2023-01-12T12:44:57.174Z,9.26
2023-01-12T12:47:34.117Z,9.27
2023-01-12T12:50:04.274Z,9.27
2023-01-12T12:52:36.154Z,9.27
2023-01-12T12:55:06.682Z,9.26
2023-01-12T12:58:02.252Z,9.24
2023-01-12T13:00:42.636Z,9.25
2023-01-12T13:03:10.810Z,9.29
2023-01-12T13:05:47.565Z,9.33
2023-01-12T13:08:22.691Z,9.36
2023-01-12T13:10:55.179Z,9.36
2023-01-12T13:13:32.518Z,9.36
2023-01-12T13:16:15.760Z,9.34
2023-01-12T13:19:05.699Z,9.31
2023-01-12T13:21:42.546Z,9.27
2023-01-12T13:24:10.393Z,9.23
2023-01-12T13:26:43.272Z,9.19
2023-01-12T13:29:23.556Z,9.17
2023-01-12T13:31:56.653Z,9.15
2023-01-12T13:34:36.499Z,9.14
2023-01-12T13:37:31.504Z,9.13
2023-01-12T13:40:12.256Z,9.11
2023-01-12T13:42:58.954Z,9.08
2023-01-12T13:45:27.111Z,9.03
2023-01-12T13:47:55.115Z,9.00
2023-01-12T13:50:25.860Z,8.96
2023-01-12T13:52:58.755Z,8.92
2023-01-12T13:55:30.761Z,8.86
2023-01-12T13:58:00.223Z,8.80
2023-01-12T14:00:32.269Z,8.74
2023-01-12T14:03:01.639Z,8.69
2023-01-12T14:05:59.507Z,8.63
2023-01-12T14:08:57.827Z,8.57
2023-01-12T14:11:58.921Z,8.51
2023-01-12T14:14:54.705Z,8.46
2023-01-12T14:17:47.008Z,8.40
2023-01-12T14:20:19.542Z,8.32
2023-01-12T14:22:47.901Z,8.25
2023-01-12T14:25:26.037Z,8.19
2023-01-12T14:27:56.134Z,8.12
2023-01-12T14:30:27.381Z,8.05
2023-01-12T14:32:55.500Z,7.98
2023-01-12T14:35:25.583Z,7.91
2023-01-12T14:37:58.103Z,7.84
2023-01-12T14:40:30.820Z,7.77
2023-01-12T14:43:19.815Z,7.70
2023-01-12T14:46:14.477Z,7.61
2023-01-12T14:48:43.988Z,7.53
2023-01-12T14:51:36.372Z,7.45
2023-01-12T14:54:07.569Z,7.38
2023-01-12T14:56:48.069Z,7.32
2023-01-12T14:59:23.450Z,7.25
2023-01-12T15:02:16.922Z,7.17
2023-01-12T15:04:56.776Z,7.10
2023-01-12T15:07:37.447Z,7.06
2023-01-12T15:10:14.628Z,7.00
2023-01-12T15:12:44.192Z,6.95
2023-01-12T15:15:16.069Z,6.91
2023-01-12T15:18:04.318Z,6.87
2023-01-12T15:20:55.931Z,6.83
2023-01-12T15:23:52.414Z,6.78
2023-01-12T15:26:21.687Z,6.72
2023-01-12T15:28:49.688Z,6.68
2023-01-12T15:31:28.169Z,6.67
2023-01-12T15:33:57.132Z,6.62
2023-01-12T15:36:25.524Z,6.59
2023-01-12T15:38:53.847Z,6.58
2023-01-12T15:41:47.850Z,6.56
2023-01-12T15:44:18.662Z,6.53
2023-01-12T15:46:47.211Z,6.50
2023-01-12T15:49:15.614Z,6.47
2023-01-12T15:51:49.138Z,6.43
2023-01-12T15:54:21.387Z,6.38
2023-01-12T15:56:49.288Z,6.35
2023-01-12T15:59:17.155Z,6.31
2023-01-12T16:01:48.321Z,6.29
2023-01-12T16:04:42.292Z,6.25
2023-01-12T16:07:10.864Z,6.23
2023-01-12T16:09:38.745Z,6.21
2023-01-12T16:12:07.946Z,6.21
2023-01-12T16:14:36.119Z,6.20
2023-01-12T16:17:04.369Z,6.20
2023-01-12T16:19:32.315Z,6.19
2023-01-12T16:22:00.170Z,6.19
2023-01-12T16:24:30.955Z,6.18
2023-01-12T16:26:59.004Z,6.15
2023-01-12T16:29:26.848Z,6.14
2023-01-12T16:31:54.746Z,6.13
2023-01-12T16:34:23.624Z,6.10
2023-01-12T16:36:51.758Z,6.08
2023-01-12T16:39:19.712Z,6.07
2023-01-12T16:41:47.870Z,6.06
2023-01-12T16:44:15.943Z,6.04
2023-01-12T16:46:44.057Z,6.01
2023-01-12T16:49:12.080Z,5.96
2023-01-12T16:51:39.959Z,5.92
2023-01-12T16:54:08.359Z,5.88
2023-01-12T16:56:36.598Z,5.86
2023-01-12T16:59:04.618Z,5.84
2023-01-12T17:01:33.390Z,5.82
2023-01-12T17:04:01.643Z,5.80
2023-01-12T17:06:30.370Z,5.78
2023-01-12T17:09:02.175Z,5.76
2023-01-12T17:11:30.893Z,5.75
2023-01-12T17:13:59.504Z,5.75
2023-01-12T17:16:31.031Z,5.74
2023-01-12T17:18:59.153Z,5.73
2023-01-12T17:21:27.267Z,5.72
2023-01-12T17:23:55.623Z,5.72
2023-01-12T17:26:24.057Z,5.71
2023-01-12T17:28:55.242Z,5.72
2023-01-12T17:31:23.767Z,5.69
2023-01-12T17:33:52.030Z,5.68
2023-01-12T17:36:19.991Z,5.67
2023-01-12T17:38:47.935Z,5.65
2023-01-12T17:41:35.696Z,5.66
2023-01-12T17:44:05.456Z,5.67
2023-01-12T17:46:34.033Z,5.69
2023-01-12T17:49:04.822Z,5.70
2023-01-12T17:51:34.435Z,5.72
2023-01-12T17:54:04.561Z,5.72
2023-01-12T17:56:35.711Z,5.74
2023-01-12T17:59:05.416Z,5.75
2023-01-12T18:01:36.142Z,5.77
2023-01-12T18:04:04.811Z,5.79
2023-01-12T18:06:33.015Z,5.81
2023-01-12T18:09:01.129Z,5.84
2023-01-12T18:11:31.263Z,5.85
2023-01-12T18:14:00.771Z,5.86
2023-01-12T18:16:29.470Z,5.87
2023-01-12T18:18:58.008Z,5.87
2023-01-12T18:21:28.473Z,5.87
2023-01-12T18:23:57.243Z,5.87
2023-01-12T18:26:30.725Z,5.88
2023-01-12T18:28:58.944Z,5.88
2023-01-12T18:31:31.432Z,5.88
2023-01-12T18:34:03.785Z,5.87
2023-01-12T18:36:37.889Z,5.88
2023-01-12T18:39:08.099Z,5.88
2023-01-12T18:41:55.690Z,5.88
2023-01-12T18:44:24.405Z,5.90
2023-01-12T18:47:11.205Z,5.92
2023-01-12T18:49:40.037Z,5.93
2023-01-12T18:52:29.887Z,5.93
2023-01-12T18:54:58.997Z,5.93
2023-01-12T18:57:30.297Z,5.93
2023-01-12T19:04:57.712Z,5.94
2023-01-12T19:07:39.827Z,5.93
2023-01-12T19:10:08.540Z,5.91
2023-01-12T19:12:36.454Z,5.91
2023-01-12T19:15:23.543Z,5.91
2023-01-12T19:17:51.340Z,5.91
2023-01-12T19:20:21.214Z,5.91
2023-01-12T19:23:08.045Z,5.89
2023-01-12T19:26:14.845Z,5.87
2023-01-12T19:28:42.937Z,5.87
2023-01-12T19:31:12.543Z,5.87
2023-01-12T19:33:42.849Z,5.87
2023-01-12T19:36:16.845Z,5.86
2023-01-12T19:38:50.640Z,5.86
2023-01-12T19:41:38.634Z,5.85
2023-01-12T19:44:06.860Z,5.85
2023-01-12T19:46:34.734Z,5.85
2023-01-12T19:49:02.787Z,5.84
2023-01-12T19:51:30.685Z,5.84
2023-01-12T19:53:58.678Z,5.84
2023-01-12T19:56:27.027Z,5.83
2023-01-12T19:58:54.911Z,5.84
2023-01-12T20:01:23.890Z,5.85
2023-01-12T20:03:51.881Z,5.88
2023-01-12T20:06:19.799Z,5.89
2023-01-12T20:08:47.652Z,5.91
2023-01-12T20:11:16.430Z,5.94
2023-01-12T20:13:44.619Z,5.98
2023-01-12T20:16:13.364Z,6.01
2023-01-12T20:18:43.646Z,6.02
2023-01-12T20:21:12.974Z,6.05
2023-01-12T20:23:40.897Z,6.07
2023-01-12T20:26:09.277Z,6.08
2023-01-12T20:28:37.339Z,6.10
2023-01-12T20:31:10.358Z,6.13
2023-01-12T20:33:38.503Z,6.16
2023-01-12T20:36:11.174Z,6.18
2023-01-12T20:38:40.780Z,6.21
2023-01-12T20:41:10.952Z,6.24
2023-01-12T20:43:38.989Z,6.25
2023-01-12T20:46:11.878Z,6.25
2023-01-12T20:48:44.761Z,6.27
2023-01-12T20:51:15.929Z,6.27
2023-01-12T20:53:44.304Z,6.28
2023-01-12T20:56:12.466Z,6.28
2023-01-12T20:58:40.563Z,6.29
2023-01-12T21:01:13.891Z,6.32
2023-01-12T21:03:43.193Z,6.34
2023-01-12T21:06:16.551Z,6.34
2023-01-12T21:08:46.666Z,6.35
2023-01-12T21:11:17.482Z,6.37
2023-01-12T21:13:45.953Z,6.38
2023-01-12T21:16:18.281Z,6.40
2023-01-12T21:18:48.133Z,6.41
2023-01-12T21:21:16.719Z,6.42
2023-01-12T21:23:44.696Z,6.43
2023-01-12T21:26:12.701Z,6.44
2023-01-12T21:28:40.792Z,6.44
2023-01-12T21:31:12.389Z,6.45
2023-01-12T21:33:40.388Z,6.45
2023-01-12T21:36:10.865Z,6.45
2023-01-12T21:41:59.079Z,6.47
2023-01-12T21:44:27.850Z,6.47
2023-01-12T21:46:55.701Z,6.48
2023-01-12T21:49:24.877Z,6.47
2023-01-12T21:51:52.885Z,6.48
2023-01-12T21:54:20.831Z,6.47
2023-01-12T21:56:48.900Z,6.47
2023-01-12T21:59:16.780Z,6.47
2023-01-12T22:01:45.639Z,6.46
2023-01-12T22:04:13.552Z,6.45
2023-01-12T22:06:41.840Z,6.45
2023-01-12T22:09:09.895Z,6.44
2023-01-12T22:11:37.856Z,6.41
2023-01-12T22:14:05.698Z,6.38
2023-01-12T22:16:33.683Z,6.35
2023-01-12T22:19:01.615Z,6.32
2023-01-12T22:21:29.669Z,6.28
2023-01-12T22:23:57.468Z,6.26
2023-01-12T22:26:28.293Z,6.25
2023-01-12T22:28:56.357Z,6.24
2023-01-12T22:31:25.652Z,6.23
2023-01-12T22:34:02.870Z,6.21
2023-01-12T22:36:34.628Z,6.20
2023-01-12T22:39:03.004Z,6.20
2023-01-12T22:41:31.086Z,6.20
2023-01-12T22:43:59.592Z,6.20
2023-01-12T22:46:28.311Z,6.21
2023-01-12T22:48:59.334Z,6.21
2023-01-12T22:51:29.401Z,6.22
2023-01-12T22:53:58.094Z,6.22
2023-01-12T22:56:26.410Z,6.22
2023-01-12T22:58:56.429Z,6.22
2023-01-12T23:01:25.605Z,6.22
2023-01-12T23:03:58.357Z,6.22
2023-01-12T23:06:27.118Z,6.22
2023-01-12T23:08:54.996Z,6.22
2023-01-12T23:11:26.318Z,6.22
2023-01-12T23:13:55.066Z,6.23
2023-01-12T23:16:23.612Z,6.24
2023-01-12T23:18:55.399Z,6.26
2023-01-12T23:21:27.956Z,6.28
2023-01-12T23:23:58.135Z,6.29
2023-01-12T23:26:29.035Z,6.31
2023-01-12T23:29:00.232Z,6.32
2023-01-12T23:31:32.110Z,6.34
2023-01-12T23:34:01.407Z,6.35
2023-01-12T23:36:30.641Z,6.36
2023-01-12T23:39:04.175Z,6.36
2023-01-12T23:41:34.985Z,6.37
2023-01-12T23:44:05.885Z,6.37
2023-01-12T23:46:37.201Z,6.37
2023-01-12T23:49:05.717Z,6.38
2023-01-12T23:51:33.690Z,6.36
2023-01-12T23:54:02.032Z,6.37
2023-01-12T23:56:34.792Z,6.36
2023-01-12T23:59:02.729Z,6.36
